Terminal Aerodrome Forecast
Issued by NWS Cleveland, OH

Home | Current Version | Previous Version | Text Only | Print | Product List | Glossary Off
Versions: 1 2 3 4 5 6 7 8 9 10 11 12 13 14 15 16

962
FTUS41 KCLE 030521
TAFMFD
TAF
KMFD 030521Z 0306/0406 VRB03KT 5SM BR OVC060
     FM031400 34005KT P6SM OVC025
     FM031800 32006KT P6SM BKN040
     FM040000 VRB03KT P6SM BKN250=

USA.gov is the U.S. government's official web portal to all federal, state and local government web resources and services.